Главная страница
METAR-TAF:

METAR-TAF

Аэропорты :

Антананариву, Мадагаскар

широта: 18-48S, долгота: 047-29E, высота над уровнем моря: 1279 м

Текущие метеонаблюдения

Эта сводка был подготовлена 35 минут назад, в 16:00 UTC
Ветер 14 Узел от восточный
Температура 19°C
Влажность 64%
Давление 1024 hPa
Видимость 10 км и более
Нет облачности ниже 1500 м, и нет кучево-дождевой облачности

METAR: FMMI 251600Z 10014KT CAVOK 19/12 Q1024 NOSIG

Время: 19:35 (16:35 UTC)

Прогноз

Эта сводка был подготовлена 5 часа и 35 минут назад, в 11:00 UTC
Прогноз действительный с 25-го 12 UTC до 26-го 18 UTC
Ветер 10 Узел от восточно-юго-восточный
Видимость 10 км и более
небольшая облачность на высоте 2000 фута
изменения
С 25-го 15 UTC до 25-го 18 UTC
Ветер 3 Узел переменных направлений
Вероятность 40%
С 26-го 02 UTC до 26-го 05 UTC
Видимость: 1500 м
Отдельные облака на высоте 400 фута
дымка

TAF: FMMI 251100Z 2512/2618 12010KT 9999 FEW020 BECMG 2515/2518 VRB03KT PROB40 2602/2605 1500 BR SCT004

Метеонаблюдения и прогнозы для более 4000 аэропортов (сводки METAR и TAF).

Имеющиеся станции представлены на карте желтыми и красными точками.

Чтобы увидеть название станции, наведите на нее мышь.

Затем щелкните, чтобы увидеть метеонаблюдения и метеопрогнозы.

Управление картой: чтобы увеличить масштаб, щелкните зеленые кнопки с черным крестиком; чтобы уменьшить масштаб, щелкните зеленую кнопку с тире; для просмотра соседних карт щелкайте зеленые стрелки.


METAR-TAF: